createdAt,value
2019-05-13T00:01:59.072Z,6.46
2019-05-13T00:04:29.430Z,6.40
2019-05-13T00:06:59.773Z,6.28
2019-05-13T00:09:30.563Z,6.18
2019-05-13T00:12:00.917Z,6.08
2019-05-13T00:14:31.571Z,5.97
2019-05-13T00:17:04.318Z,5.97
2019-05-13T00:19:34.838Z,5.82
2019-05-13T00:22:05.138Z,5.67
2019-05-13T00:24:35.334Z,5.58
2019-05-13T00:27:05.638Z,5.52
2019-05-13T00:29:35.938Z,5.45
2019-05-13T00:32:06.298Z,5.40
2019-05-13T00:34:36.567Z,5.40
2019-05-13T00:37:11.198Z,5.47
2019-05-13T00:39:38.921Z,5.46
2019-05-13T00:42:09.624Z,5.40
2019-05-13T00:44:39.904Z,5.33
2019-05-13T00:47:10.139Z,5.36
2019-05-13T00:49:40.446Z,5.44
2019-05-13T00:52:11.152Z,5.28
2019-05-13T00:54:41.379Z,5.18
2019-05-13T00:57:13.366Z,5.15
2019-05-13T00:59:44.442Z,5.07
2019-05-13T01:02:14.691Z,5.04
2019-05-13T01:04:44.915Z,4.95
2019-05-13T01:07:25.266Z,5.00
2019-05-13T01:09:47.110Z,4.92
2019-05-13T01:12:17.524Z,4.86
2019-05-13T01:14:48.145Z,4.85
2019-05-13T01:17:18.362Z,4.76
2019-05-13T01:19:48.590Z,4.67
2019-05-13T01:22:18.847Z,4.67
2019-05-13T01:24:50.058Z,4.66
2019-05-13T01:27:20.387Z,4.59
2019-05-13T01:29:50.689Z,4.46
2019-05-13T01:32:20.964Z,4.46
2019-05-13T01:34:53.840Z,4.44
2019-05-13T01:37:38.006Z,4.41
2019-05-13T01:39:56.931Z,4.52
2019-05-13T01:42:27.212Z,4.52
2019-05-13T01:44:58.682Z,4.45
2019-05-13T01:47:28.998Z,4.43
2019-05-13T01:49:59.246Z,4.39
2019-05-13T01:52:29.644Z,4.33
2019-05-13T01:54:59.898Z,4.35
2019-05-13T01:57:30.167Z,4.44
2019-05-13T02:00:00.435Z,4.43
2019-05-13T02:02:33.671Z,4.45
2019-05-13T02:05:04.072Z,4.41
2019-05-13T02:07:34.531Z,4.43
2019-05-13T02:10:05.665Z,4.34
2019-05-13T02:12:35.922Z,4.28
2019-05-13T02:15:07.012Z,4.15
2019-05-13T02:19:35.914Z,4.17
2019-05-13T02:22:06.145Z,4.13
2019-05-13T02:24:36.457Z,4.08
2019-05-13T02:27:06.806Z,4.08
2019-05-13T02:29:37.075Z,4.07
2019-05-13T02:32:07.356Z,4.04
2019-05-13T02:34:37.645Z,3.96
2019-05-13T02:37:07.842Z,4.00
2019-05-13T02:39:38.124Z,3.98
2019-05-13T02:42:08.412Z,3.93
2019-05-13T02:44:38.663Z,3.93
2019-05-13T02:47:12.114Z,3.96
2019-05-13T02:49:43.048Z,3.86
2019-05-13T02:52:13.501Z,3.78
2019-05-13T02:54:43.949Z,3.69
2019-05-13T02:57:14.239Z,3.63
2019-05-13T02:59:44.512Z,3.56
2019-05-13T03:02:14.878Z,3.50
2019-05-13T03:04:45.130Z,3.48
2019-05-13T03:07:15.416Z,3.40
2019-05-13T03:09:45.657Z,3.36
2019-05-13T03:12:16.201Z,3.39
2019-05-13T03:14:48.448Z,3.40
2019-05-13T03:17:26.735Z,3.42
2019-05-13T03:19:56.963Z,3.45
2019-05-13T03:22:27.393Z,3.39
2019-05-13T03:24:57.677Z,3.37
2019-05-13T03:27:27.994Z,3.35
2019-05-13T03:29:58.248Z,3.30
2019-05-13T03:32:35.662Z,3.26
2019-05-13T03:35:06.319Z,3.27
2019-05-13T03:37:34.895Z,3.21
2019-05-13T03:40:05.298Z,3.17
2019-05-13T03:42:37.277Z,3.20
2019-05-13T03:45:07.941Z,3.18
2019-05-13T03:47:41.990Z,3.15
2019-05-13T03:50:12.980Z,3.14
2019-05-13T03:52:43.721Z,3.22
2019-05-13T03:55:14.692Z,3.25
2019-05-13T03:57:45.927Z,3.21
2019-05-13T04:00:16.557Z,3.18
2019-05-13T04:02:47.465Z,3.11
2019-05-13T04:05:17.741Z,3.15
2019-05-13T04:07:48.026Z,3.13
2019-05-13T04:10:18.763Z,3.12
2019-05-13T04:12:52.388Z,3.12
2019-05-13T04:15:23.409Z,3.09
2019-05-13T04:17:54.802Z,3.11
2019-05-13T04:20:24.993Z,3.11
2019-05-13T04:22:55.612Z,3.15
2019-05-13T04:25:25.870Z,3.22
2019-05-13T04:27:56.169Z,3.24
2019-05-13T04:30:26.427Z,3.29
2019-05-13T04:32:57.434Z,3.39
2019-05-13T04:35:27.631Z,3.42
2019-05-13T04:37:58.546Z,3.52
2019-05-13T04:40:28.840Z,3.62
2019-05-13T04:43:02.600Z,3.61
2019-05-13T04:45:33.002Z,3.64
2019-05-13T04:48:03.750Z,3.68
2019-05-13T04:50:34.145Z,3.73
2019-05-13T04:53:05.150Z,3.79
2019-05-13T04:55:35.680Z,3.88
2019-05-13T04:58:06.401Z,3.96
2019-05-13T05:01:23.748Z,4.04
2019-05-13T05:04:30.407Z,4.11
2019-05-13T05:07:06.642Z,4.23
2019-05-13T05:10:17.418Z,4.35
2019-05-13T05:13:17.527Z,4.47
2019-05-13T05:16:13.492Z,4.67
2019-05-13T05:19:12.213Z,4.82
2019-05-13T05:21:55.199Z,4.95
2019-05-13T05:25:05.242Z,5.04
2019-05-13T05:28:02.111Z,5.18
2019-05-13T05:31:02.409Z,5.31
2019-05-13T05:34:14.190Z,5.39
2019-05-13T05:37:33.542Z,5.45
2019-05-13T05:40:06.285Z,5.52
2019-05-13T05:42:37.731Z,5.65
2019-05-13T05:45:08.588Z,5.76
2019-05-13T05:47:42.091Z,5.85
2019-05-13T05:50:12.874Z,5.99
2019-05-13T05:52:44.335Z,6.12
2019-05-13T05:55:14.559Z,6.17
2019-05-13T05:57:46.789Z,6.21
2019-05-13T06:00:17.571Z,6.30
2019-05-13T06:02:52.930Z,6.37
2019-05-13T06:05:22.613Z,6.46
2019-05-13T06:07:53.271Z,6.56
2019-05-13T06:10:23.785Z,6.64
2019-05-13T06:12:55.516Z,6.74
2019-05-13T06:15:26.399Z,6.82
2019-05-13T06:17:56.815Z,6.91
2019-05-13T06:20:27.469Z,7.01
2019-05-13T06:22:57.794Z,7.08
2019-05-13T06:25:28.107Z,7.18
2019-05-13T06:27:58.912Z,7.25
2019-05-13T06:30:31.881Z,7.37
2019-05-13T06:33:01.682Z,7.56
2019-05-13T06:35:32.662Z,7.69
2019-05-13T06:38:02.949Z,7.78
2019-05-13T06:40:33.737Z,7.88
2019-05-13T06:43:04.270Z,7.99
2019-05-13T06:45:34.819Z,8.17
2019-05-13T06:48:05.307Z,8.29
2019-05-13T06:50:35.573Z,8.40
2019-05-13T06:53:08.457Z,8.51
2019-05-13T06:55:37.839Z,8.61
2019-05-13T06:58:08.277Z,8.75
2019-05-13T07:00:38.579Z,8.89
2019-05-13T07:03:08.893Z,8.99
2019-05-13T07:05:39.143Z,9.09
2019-05-13T07:08:11.995Z,9.27
2019-05-13T07:10:42.143Z,9.46
2019-05-13T07:13:12.411Z,9.66
2019-05-13T07:15:42.633Z,10.07
2019-05-13T07:18:16.087Z,10.07
2019-05-13T07:20:44.789Z,10.29
2019-05-13T07:23:15.050Z,10.46
2019-05-13T07:25:45.326Z,10.71
2019-05-13T07:28:15.966Z,10.89
2019-05-13T07:30:46.590Z,11.10
2019-05-13T07:33:16.890Z,11.31
2019-05-13T07:35:47.351Z,11.37
2019-05-13T07:38:18.513Z,11.41
2019-05-13T07:40:52.684Z,11.54
2019-05-13T07:43:23.943Z,11.72
2019-05-13T07:45:54.166Z,12.04
2019-05-13T07:48:27.755Z,12.36
2019-05-13T07:51:00.772Z,12.57
2019-05-13T07:53:32.218Z,12.73
2019-05-13T07:56:02.261Z,12.83
2019-05-13T07:58:37.223Z,12.85
2019-05-13T08:01:04.947Z,13.21
2019-05-13T08:03:35.284Z,13.04
2019-05-13T08:06:05.554Z,13.01
2019-05-13T08:08:36.203Z,13.12
2019-05-13T08:11:06.950Z,13.54
2019-05-13T08:13:38.428Z,13.66
2019-05-13T08:16:08.786Z,13.92
2019-05-13T08:18:39.084Z,14.30
2019-05-13T08:21:09.364Z,14.34
2019-05-13T08:23:41.715Z,14.69
2019-05-13T08:26:12.440Z,15.35
2019-05-13T08:28:57.159Z,15.56
2019-05-13T08:31:14.755Z,16.05
2019-05-13T08:33:44.932Z,16.00
2019-05-13T08:36:15.128Z,15.84
2019-05-13T08:38:45.324Z,15.85
2019-05-13T08:41:19.430Z,16.14
2019-05-13T08:43:47.531Z,16.61
2019-05-13T08:46:18.419Z,16.54
2019-05-13T08:48:51.609Z,16.92
2019-05-13T08:51:22.055Z,16.45
2019-05-13T08:53:52.458Z,16.47
2019-05-13T08:56:23.798Z,17.01
2019-05-13T08:58:54.164Z,17.30
2019-05-13T09:01:25.435Z,16.85
2019-05-13T09:03:55.621Z,16.68
2019-05-13T09:06:26.452Z,17.15
2019-05-13T09:08:56.667Z,17.24
2019-05-13T09:11:26.938Z,16.65
2019-05-13T09:13:57.518Z,16.71
2019-05-13T09:16:27.749Z,17.01
2019-05-13T09:18:58.066Z,16.72
2019-05-13T09:21:28.611Z,17.07
2019-05-13T09:23:58.798Z,17.36
2019-05-13T09:26:31.589Z,17.11
2019-05-13T09:29:01.701Z,17.53
2019-05-13T09:31:32.944Z,17.95
2019-05-13T09:34:03.136Z,17.84
2019-05-13T09:36:33.619Z,17.86
2019-05-13T09:39:05.697Z,17.88
2019-05-13T09:41:40.770Z,18.70
2019-05-13T09:44:07.833Z,18.37
2019-05-13T09:46:38.040Z,18.38
2019-05-13T09:49:18.441Z,19.37
2019-05-13T09:51:41.721Z,19.90
2019-05-13T09:54:12.067Z,20.72
2019-05-13T09:56:42.404Z,21.16
2019-05-13T09:59:12.898Z,22.22
2019-05-13T10:01:43.298Z,22.73
2019-05-13T10:04:13.596Z,22.37
2019-05-13T10:06:43.926Z,22.74
2019-05-13T10:09:14.167Z,23.53
2019-05-13T10:11:44.386Z,23.52
2019-05-13T10:14:14.576Z,24.17
2019-05-13T10:16:44.784Z,23.96
2019-05-13T10:19:14.986Z,24.41
2019-05-13T10:21:45.520Z,24.80
2019-05-13T10:24:16.244Z,24.91
2019-05-13T10:26:48.539Z,24.77
2019-05-13T10:29:22.083Z,25.54
2019-05-13T10:31:52.688Z,25.60
2019-05-13T10:34:23.286Z,25.36
2019-05-13T10:36:54.218Z,25.86
2019-05-13T10:39:24.472Z,25.60
2019-05-13T10:41:54.659Z,26.60
2019-05-13T10:44:25.194Z,26.49
2019-05-13T10:46:55.377Z,26.77
2019-05-13T10:49:25.603Z,26.99
2019-05-13T10:51:55.812Z,27.26
2019-05-13T10:54:26.010Z,27.78
2019-05-13T10:56:59.649Z,27.96
2019-05-13T10:59:29.270Z,27.52
2019-05-13T11:02:02.277Z,26.70
2019-05-13T11:04:32.648Z,27.73
2019-05-13T11:07:03.338Z,27.21
2019-05-13T11:09:33.586Z,27.29
2019-05-13T11:12:04.699Z,26.88
2019-05-13T11:14:35.154Z,27.78
2019-05-13T11:17:05.443Z,27.51
2019-05-13T11:19:37.121Z,26.99
2019-05-13T11:22:07.576Z,26.58
2019-05-13T11:24:37.856Z,26.52
2019-05-13T11:27:08.476Z,25.17
2019-05-13T11:29:38.691Z,26.83
2019-05-13T11:32:12.927Z,27.60
2019-05-13T11:34:42.923Z,28.25
2019-05-13T11:37:14.615Z,29.44
2019-05-13T11:39:45.244Z,29.70
2019-05-13T11:42:15.427Z,27.02
2019-05-13T11:44:46.015Z,25.69
2019-05-13T11:47:16.186Z,26.23
2019-05-13T11:49:46.673Z,26.71
2019-05-13T11:52:17.175Z,28.13
2019-05-13T11:54:47.400Z,28.52
2019-05-13T11:57:17.921Z,29.12
2019-05-13T11:59:48.969Z,28.87
2019-05-13T12:02:22.929Z,30.07
2019-05-13T12:04:53.573Z,30.58
2019-05-13T12:07:24.927Z,30.78
2019-05-13T12:09:55.260Z,29.47
2019-05-13T12:12:30.677Z,30.54
2019-05-13T12:15:22.368Z,31.08
2019-05-13T12:17:33.736Z,31.39
2019-05-13T12:20:03.090Z,31.88
2019-05-13T12:22:33.864Z,31.75
2019-05-13T12:25:05.116Z,31.67
2019-05-13T12:27:35.331Z,30.78
2019-05-13T12:30:06.319Z,30.78
2019-05-13T12:32:37.419Z,32.28
2019-05-13T12:35:07.831Z,32.00
2019-05-13T12:37:38.076Z,33.37
2019-05-13T12:40:10.047Z,32.62
2019-05-13T12:42:46.776Z,32.26
2019-05-13T12:45:14.689Z,33.22
2019-05-13T12:47:45.009Z,33.31
2019-05-13T12:50:15.978Z,33.71
2019-05-13T12:52:46.307Z,30.33
2019-05-13T12:55:16.896Z,31.62
2019-05-13T12:57:47.425Z,32.46
2019-05-13T13:00:18.567Z,33.63
2019-05-13T13:02:51.777Z,30.03
2019-05-13T13:05:24.023Z,27.47
2019-05-13T13:08:15.905Z,26.62
2019-05-13T13:10:24.488Z,30.65
2019-05-13T13:12:55.120Z,30.97
2019-05-13T13:15:38.329Z,31.43
2019-05-13T13:17:57.333Z,32.15
2019-05-13T13:20:27.956Z,31.75
2019-05-13T13:22:58.646Z,31.16
2019-05-13T13:25:29.120Z,28.19
2019-05-13T13:28:10.808Z,28.02
2019-05-13T13:30:35.165Z,27.62
2019-05-13T13:33:03.526Z,25.81
2019-05-13T13:35:34.151Z,24.44
2019-05-13T13:38:04.700Z,23.15
2019-05-13T13:40:35.813Z,23.34
2019-05-13T13:43:06.422Z,24.37
2019-05-13T13:48:08.461Z,27.56
2019-05-13T13:50:38.725Z,24.80
2019-05-13T13:53:13.490Z,23.29
2019-05-13T13:55:44.242Z,21.01
2019-05-13T13:58:14.137Z,20.42
2019-05-13T14:00:56.380Z,20.42
2019-05-13T14:03:16.668Z,24.43
2019-05-13T14:05:47.274Z,28.97
2019-05-13T14:07:13.500Z,29.42
2019-05-13T14:08:17.536Z,28.45
2019-05-13T14:10:47.775Z,26.19
2019-05-13T14:13:17.954Z,24.50
2019-05-13T14:15:48.521Z,23.72
2019-05-13T14:18:18.720Z,22.80
2019-05-13T14:20:48.929Z,22.42
2019-05-13T14:23:21.323Z,22.05
2019-05-13T14:25:52.991Z,21.70
2019-05-13T14:28:23.797Z,22.00
2019-05-13T14:30:54.334Z,25.15
2019-05-13T14:33:24.524Z,29.40
2019-05-13T14:35:54.834Z,31.36
2019-05-13T14:38:25.012Z,32.47
2019-05-13T14:40:55.726Z,32.72
2019-05-13T14:43:26.329Z,33.04
2019-05-13T14:45:56.579Z,33.55
2019-05-13T14:48:27.079Z,31.40
2019-05-13T14:50:59.052Z,28.15
2019-05-13T14:53:31.859Z,25.42
2019-05-13T14:56:02.979Z,23.89
2019-05-13T14:58:33.524Z,25.29
2019-05-13T15:01:17.931Z,25.29
2019-05-13T15:03:35.623Z,29.34
2019-05-13T15:06:06.120Z,28.58
2019-05-13T15:08:36.658Z,25.06
2019-05-13T15:11:06.909Z,27.91
2019-05-13T15:13:37.096Z,31.40
2019-05-13T15:16:07.383Z,34.21
2019-05-13T15:18:37.628Z,34.61
2019-05-13T15:21:08.107Z,35.91
2019-05-13T15:23:38.361Z,35.66
2019-05-13T15:26:08.660Z,32.44
2019-05-13T15:28:38.993Z,28.66
2019-05-13T15:31:10.896Z,30.23
2019-05-13T15:33:41.753Z,26.56
2019-05-13T15:36:12.396Z,25.87
2019-05-13T15:38:42.785Z,24.52
2019-05-13T15:41:15.649Z,23.78
2019-05-13T15:43:44.983Z,27.71
2019-05-13T15:46:15.490Z,29.39
2019-05-13T15:48:46.070Z,29.89
2019-05-13T15:51:16.261Z,31.53
2019-05-13T15:53:46.550Z,32.65
2019-05-13T15:56:17.015Z,33.53
2019-05-13T15:58:47.265Z,34.10
2019-05-13T16:01:17.790Z,32.63
2019-05-13T16:03:48.043Z,33.39
2019-05-13T16:06:18.545Z,33.70
2019-05-13T16:08:51.619Z,34.59
2019-05-13T16:11:21.991Z,32.68
2019-05-13T16:13:53.382Z,30.56
2019-05-13T16:16:23.564Z,27.02
2019-05-13T16:18:54.470Z,25.38
2019-05-13T16:21:24.675Z,23.29
2019-05-13T16:23:54.894Z,21.73
2019-05-13T16:26:45.587Z,21.37
2019-05-13T16:28:57.212Z,22.53
2019-05-13T16:31:27.394Z,26.87
2019-05-13T16:33:57.673Z,29.60
2019-05-13T16:36:27.905Z,28.71
2019-05-13T16:39:01.973Z,27.57
2019-05-13T16:41:33.246Z,25.59
2019-05-13T16:44:03.637Z,22.54
2019-05-13T16:46:34.801Z,23.10
2019-05-13T16:49:06.151Z,27.95
2019-05-13T16:51:36.680Z,29.79
2019-05-13T16:54:07.208Z,31.86
2019-05-13T16:56:37.403Z,32.46
2019-05-13T16:59:08.746Z,32.07
2019-05-13T17:01:41.813Z,32.60
2019-05-13T17:04:12.620Z,31.44
2019-05-13T17:06:42.951Z,32.17
2019-05-13T17:09:14.233Z,30.22
2019-05-13T17:11:44.420Z,30.80
2019-05-13T17:14:14.717Z,29.60
2019-05-13T17:16:44.935Z,29.69
2019-05-13T17:19:15.498Z,28.97
2019-05-13T17:21:45.689Z,29.35
2019-05-13T17:24:16.194Z,28.67
2019-05-13T17:26:46.417Z,29.14
2019-05-13T17:29:16.654Z,27.87
2019-05-13T17:31:47.102Z,26.58
2019-05-13T17:34:17.728Z,27.55
2019-05-13T17:36:47.908Z,27.86
2019-05-13T17:39:18.113Z,28.70
2019-05-13T17:41:48.301Z,25.13
2019-05-13T17:44:19.135Z,22.29
2019-05-13T17:46:49.308Z,20.47
2019-05-13T17:49:19.515Z,19.20
2019-05-13T17:51:51.716Z,18.38
2019-05-13T17:54:22.291Z,17.75
2019-05-13T17:56:52.467Z,17.54
2019-05-13T17:59:23.331Z,17.34
2019-05-13T18:01:54.351Z,17.08
2019-05-13T18:04:24.574Z,16.95
2019-05-13T18:06:54.748Z,16.80
2019-05-13T18:09:24.951Z,16.59
2019-05-13T18:11:55.467Z,16.41
2019-05-13T18:14:26.010Z,16.21
2019-05-13T18:16:56.184Z,16.08
2019-05-13T18:19:27.158Z,15.97
2019-05-13T18:21:57.687Z,15.85
2019-05-13T18:24:27.909Z,15.63
2019-05-13T18:26:58.113Z,15.55
2019-05-13T18:29:28.663Z,15.45
2019-05-13T18:31:58.929Z,15.35
2019-05-13T18:34:29.165Z,15.27
2019-05-13T18:37:02.192Z,15.21
2019-05-13T18:39:32.260Z,15.15
2019-05-13T18:42:03.722Z,15.04
2019-05-13T18:44:34.015Z,14.79
2019-05-13T18:47:04.529Z,14.64
2019-05-13T18:49:35.081Z,14.49
2019-05-13T18:52:05.261Z,14.41
2019-05-13T18:54:35.466Z,14.24
2019-05-13T18:57:05.826Z,14.19
2019-05-13T18:59:36.452Z,14.03
2019-05-13T19:02:07.252Z,14.04
2019-05-13T19:04:37.518Z,13.89
2019-05-13T19:07:08.451Z,13.82
2019-05-13T19:09:38.985Z,13.72
2019-05-13T19:12:11.458Z,13.64
2019-05-13T19:14:41.324Z,13.47
2019-05-13T19:17:12.310Z,13.41
2019-05-13T19:19:42.773Z,13.31
2019-05-13T19:22:13.297Z,13.16
2019-05-13T19:24:43.565Z,13.02
2019-05-13T19:27:13.816Z,12.92
2019-05-13T19:29:44.412Z,12.79
2019-05-13T19:32:14.677Z,12.70
2019-05-13T19:34:45.039Z,12.56
2019-05-13T19:37:15.379Z,12.50
2019-05-13T19:39:45.943Z,12.36
2019-05-13T19:42:16.494Z,12.32
2019-05-13T19:44:46.858Z,12.24
2019-05-13T19:47:17.428Z,12.05
2019-05-13T19:49:47.795Z,11.96
2019-05-13T19:52:18.083Z,11.87
2019-05-13T19:54:48.714Z,11.99
2019-05-13T19:57:21.125Z,11.86
2019-05-13T19:59:51.693Z,11.83
2019-05-13T20:02:22.473Z,11.72
2019-05-13T20:04:52.717Z,11.55
2019-05-13T20:07:23.567Z,11.37
2019-05-13T20:09:53.773Z,11.42
2019-05-13T20:12:24.054Z,11.36
2019-05-13T20:14:54.396Z,11.21
2019-05-13T20:17:24.694Z,11.11
2019-05-13T20:19:55.550Z,11.16
2019-05-13T20:22:25.760Z,11.04
2019-05-13T20:24:56.705Z,11.03
2019-05-13T20:27:27.024Z,10.98
2019-05-13T20:29:57.449Z,10.98
2019-05-13T20:32:28.840Z,10.78
2019-05-13T20:35:02.006Z,10.74
2019-05-13T20:37:32.105Z,10.57
2019-05-13T20:40:03.936Z,10.42
2019-05-13T20:42:34.207Z,10.30
2019-05-13T20:45:04.666Z,10.23
2019-05-13T20:47:35.934Z,10.24
2019-05-13T20:50:06.605Z,10.14
2019-05-13T20:52:37.378Z,10.10
2019-05-13T20:55:07.975Z,9.99
2019-05-13T20:57:38.323Z,9.97
2019-05-13T21:00:09.410Z,9.82
2019-05-13T21:02:41.783Z,9.77
2019-05-13T21:05:12.445Z,9.71
2019-05-13T21:07:42.732Z,9.75
2019-05-13T21:10:13.183Z,9.71
2019-05-13T21:12:43.478Z,9.66
2019-05-13T21:15:13.744Z,9.52
2019-05-13T21:17:44.318Z,9.48
2019-05-13T21:20:22.155Z,9.42
2019-05-13T21:22:46.627Z,9.39
2019-05-13T21:25:17.391Z,9.28
2019-05-13T21:27:48.773Z,9.25
2019-05-13T21:30:18.969Z,9.24
2019-05-13T21:32:51.626Z,9.18
2019-05-13T21:35:22.735Z,9.15
2019-05-13T21:37:53.282Z,9.08
2019-05-13T21:40:23.811Z,9.10
2019-05-13T21:42:54.023Z,9.00
2019-05-13T21:45:24.321Z,9.05
2019-05-13T21:47:54.578Z,8.99
2019-05-13T21:50:34.374Z,8.91
2019-05-13T21:52:56.640Z,8.86
2019-05-13T21:55:27.260Z,8.81
2019-05-13T21:57:57.451Z,8.72
2019-05-13T22:00:32.181Z,8.70
2019-05-13T22:03:03.527Z,8.58
2019-05-13T22:05:33.859Z,8.38
2019-05-13T22:08:05.841Z,8.19
2019-05-13T22:10:36.080Z,8.19
2019-05-13T22:13:06.637Z,8.13
2019-05-13T22:15:37.483Z,8.01
2019-05-13T22:18:07.689Z,7.93
2019-05-13T22:20:47.434Z,7.87
2019-05-13T22:23:11.930Z,7.84
2019-05-13T22:25:43.808Z,7.79
2019-05-13T22:28:13.912Z,7.74
2019-05-13T22:30:44.111Z,7.84
2019-05-13T22:33:15.686Z,7.81
2019-05-13T22:35:45.931Z,7.90
2019-05-13T22:38:16.108Z,7.80
2019-05-13T22:40:46.285Z,7.80
2019-05-13T22:43:17.762Z,7.77
2019-05-13T22:45:47.927Z,7.67
2019-05-13T22:48:18.482Z,7.77
2019-05-13T22:50:48.659Z,7.69
2019-05-13T22:53:20.989Z,7.67
2019-05-13T22:55:52.158Z,7.64
2019-05-13T22:58:22.696Z,7.59
2019-05-13T23:00:53.941Z,7.56
2019-05-13T23:03:24.130Z,7.51
2019-05-13T23:05:54.676Z,7.50
2019-05-13T23:08:24.893Z,7.55
2019-05-13T23:10:55.075Z,7.59
2019-05-13T23:13:25.900Z,7.56
2019-05-13T23:15:56.075Z,7.68
2019-05-13T23:18:26.291Z,7.66
2019-05-13T23:20:56.498Z,7.66
2019-05-13T23:23:27.783Z,7.79
2019-05-13T23:25:57.970Z,7.86
2019-05-13T23:28:28.191Z,7.83
2019-05-13T23:30:58.455Z,7.87
2019-05-13T23:33:31.230Z,8.01
2019-05-13T23:36:01.503Z,8.01
2019-05-13T23:38:32.158Z,8.08
2019-05-13T23:41:02.671Z,8.00
2019-05-13T23:43:33.073Z,7.99
2019-05-13T23:46:03.362Z,7.89
2019-05-13T23:48:33.535Z,7.89
2019-05-13T23:51:03.734Z,7.83
2019-05-13T23:53:34.278Z,7.88
2019-05-13T23:56:04.564Z,7.84
2019-05-13T23:58:34.855Z,7.98
